sensor_id;sensor_type;location;lat;lon;timestamp;P1;durP1;ratioP1;P2;durP2;ratioP2
5811;SDS011;2932;52.400;9.558;2023-05-07T00:01:14;18.93;;;14.37;;
5811;SDS011;2932;52.400;9.558;2023-05-07T00:03:39;17.87;;;14.33;;
5811;SDS011;2932;52.400;9.558;2023-05-07T00:06:05;20.67;;;15.10;;
5811;SDS011;2932;52.400;9.558;2023-05-07T00:08:30;20.13;;;15.33;;
5811;SDS011;2932;52.400;9.558;2023-05-07T00:10:55;22.67;;;15.43;;
5811;SDS011;2932;52.400;9.558;2023-05-07T00:13:21;20.27;;;15.53;;
5811;SDS011;2932;52.400;9.558;2023-05-07T00:15:46;20.63;;;15.00;;
5811;SDS011;2932;52.400;9.558;2023-05-07T00:18:11;19.10;;;15.03;;
5811;SDS011;2932;52.400;9.558;2023-05-07T00:20:37;19.40;;;15.20;;
5811;SDS011;2932;52.400;9.558;2023-05-07T00:23:02;18.40;;;13.80;;
5811;SDS011;2932;52.400;9.558;2023-05-07T00:25:27;21.20;;;14.87;;
5811;SDS011;2932;52.400;9.558;2023-05-07T00:27:53;19.70;;;14.30;;
5811;SDS011;2932;52.400;9.558;2023-05-07T00:30:18;20.40;;;14.77;;
5811;SDS011;2932;52.400;9.558;2023-05-07T00:32:44;21.70;;;14.27;;
5811;SDS011;2932;52.400;9.558;2023-05-07T00:35:10;19.63;;;14.63;;
5811;SDS011;2932;52.400;9.558;2023-05-07T00:37:36;20.60;;;14.93;;
5811;SDS011;2932;52.400;9.558;2023-05-07T00:40:01;20.30;;;15.07;;
5811;SDS011;2932;52.400;9.558;2023-05-07T00:42:29;21.33;;;14.47;;
5811;SDS011;2932;52.400;9.558;2023-05-07T00:44:57;20.53;;;14.37;;
5811;SDS011;2932;52.400;9.558;2023-05-07T00:47:22;20.33;;;14.93;;
5811;SDS011;2932;52.400;9.558;2023-05-07T00:49:48;27.13;;;15.80;;
5811;SDS011;2932;52.400;9.558;2023-05-07T00:52:14;22.43;;;15.27;;
5811;SDS011;2932;52.400;9.558;2023-05-07T00:54:41;23.30;;;16.07;;
5811;SDS011;2932;52.400;9.558;2023-05-07T00:57:07;22.43;;;15.00;;
5811;SDS011;2932;52.400;9.558;2023-05-07T00:59:35;22.10;;;15.50;;
5811;SDS011;2932;52.400;9.558;2023-05-07T01:02:00;22.30;;;16.37;;
5811;SDS011;2932;52.400;9.558;2023-05-07T01:04:26;24.13;;;15.60;;
5811;SDS011;2932;52.400;9.558;2023-05-07T01:06:52;24.30;;;16.27;;
5811;SDS011;2932;52.400;9.558;2023-05-07T01:09:21;21.57;;;14.90;;
5811;SDS011;2932;52.400;9.558;2023-05-07T01:11:47;21.80;;;14.13;;
5811;SDS011;2932;52.400;9.558;2023-05-07T01:14:15;21.87;;;14.73;;
5811;SDS011;2932;52.400;9.558;2023-05-07T01:16:41;22.73;;;15.23;;
5811;SDS011;2932;52.400;9.558;2023-05-07T01:19:11;22.90;;;15.57;;
5811;SDS011;2932;52.400;9.558;2023-05-07T01:21:39;23.37;;;15.87;;
5811;SDS011;2932;52.400;9.558;2023-05-07T01:24:11;19.93;;;14.47;;
5811;SDS011;2932;52.400;9.558;2023-05-07T01:26:36;20.13;;;15.33;;
5811;SDS011;2932;52.400;9.558;2023-05-07T01:29:02;22.40;;;16.03;;
5811;SDS011;2932;52.400;9.558;2023-05-07T01:31:27;22.67;;;15.20;;
5811;SDS011;2932;52.400;9.558;2023-05-07T01:33:53;25.33;;;15.67;;
5811;SDS011;2932;52.400;9.558;2023-05-07T01:36:21;23.67;;;15.30;;
5811;SDS011;2932;52.400;9.558;2023-05-07T01:38:50;22.90;;;14.97;;
5811;SDS011;2932;52.400;9.558;2023-05-07T01:41:16;23.53;;;16.13;;
5811;SDS011;2932;52.400;9.558;2023-05-07T01:43:42;25.17;;;16.17;;
5811;SDS011;2932;52.400;9.558;2023-05-07T01:46:08;21.07;;;15.50;;
5811;SDS011;2932;52.400;9.558;2023-05-07T01:48:35;23.13;;;15.63;;
5811;SDS011;2932;52.400;9.558;2023-05-07T01:51:00;22.57;;;16.07;;
5811;SDS011;2932;52.400;9.558;2023-05-07T01:53:27;24.57;;;16.17;;
5811;SDS011;2932;52.400;9.558;2023-05-07T01:55:53;23.17;;;15.63;;
5811;SDS011;2932;52.400;9.558;2023-05-07T01:58:18;21.87;;;15.90;;
5811;SDS011;2932;52.400;9.558;2023-05-07T02:00:43;24.27;;;16.70;;
5811;SDS011;2932;52.400;9.558;2023-05-07T02:03:09;24.10;;;15.63;;
5811;SDS011;2932;52.400;9.558;2023-05-07T02:05:34;21.43;;;15.83;;
5811;SDS011;2932;52.400;9.558;2023-05-07T02:08:00;21.27;;;15.17;;
5811;SDS011;2932;52.400;9.558;2023-05-07T02:10:25;22.33;;;14.70;;
5811;SDS011;2932;52.400;9.558;2023-05-07T02:12:50;20.43;;;14.80;;
5811;SDS011;2932;52.400;9.558;2023-05-07T02:15:16;20.53;;;14.43;;
5811;SDS011;2932;52.400;9.558;2023-05-07T02:20:27;20.77;;;13.37;;
5811;SDS011;2932;52.400;9.558;2023-05-07T02:22:52;17.53;;;12.10;;
5811;SDS011;2932;52.400;9.558;2023-05-07T02:25:17;17.20;;;12.77;;
5811;SDS011;2932;52.400;9.558;2023-05-07T02:27:43;19.77;;;13.40;;
5811;SDS011;2932;52.400;9.558;2023-05-07T02:30:08;19.33;;;13.63;;
5811;SDS011;2932;52.400;9.558;2023-05-07T02:32:34;19.70;;;12.63;;
5811;SDS011;2932;52.400;9.558;2023-05-07T02:34:59;17.70;;;11.87;;
5811;SDS011;2932;52.400;9.558;2023-05-07T02:37:24;19.77;;;12.57;;
5811;SDS011;2932;52.400;9.558;2023-05-07T02:39:50;19.23;;;11.33;;
5811;SDS011;2932;52.400;9.558;2023-05-07T02:42:15;16.47;;;11.27;;
5811;SDS011;2932;52.400;9.558;2023-05-07T02:44:40;16.03;;;10.93;;
5811;SDS011;2932;52.400;9.558;2023-05-07T02:47:06;14.70;;;10.57;;
5811;SDS011;2932;52.400;9.558;2023-05-07T02:49:33;15.47;;;10.53;;
5811;SDS011;2932;52.400;9.558;2023-05-07T02:51:58;15.03;;;10.40;;
5811;SDS011;2932;52.400;9.558;2023-05-07T02:54:24;13.93;;;9.77;;
5811;SDS011;2932;52.400;9.558;2023-05-07T02:56:49;12.40;;;8.77;;
5811;SDS011;2932;52.400;9.558;2023-05-07T02:59:15;12.63;;;9.53;;
5811;SDS011;2932;52.400;9.558;2023-05-07T03:01:40;12.67;;;8.77;;
5811;SDS011;2932;52.400;9.558;2023-05-07T03:04:06;13.17;;;8.43;;
5811;SDS011;2932;52.400;9.558;2023-05-07T03:06:31;10.83;;;7.83;;
5811;SDS011;2932;52.400;9.558;2023-05-07T03:08:57;11.37;;;8.57;;
5811;SDS011;2932;52.400;9.558;2023-05-07T03:11:22;11.20;;;8.53;;
5811;SDS011;2932;52.400;9.558;2023-05-07T03:13:47;12.50;;;8.67;;
5811;SDS011;2932;52.400;9.558;2023-05-07T03:16:14;11.13;;;8.10;;
5811;SDS011;2932;52.400;9.558;2023-05-07T03:18:40;10.40;;;8.20;;
5811;SDS011;2932;52.400;9.558;2023-05-07T03:21:05;11.40;;;7.90;;
5811;SDS011;2932;52.400;9.558;2023-05-07T03:23:31;10.07;;;7.90;;
5811;SDS011;2932;52.400;9.558;2023-05-07T03:25:56;10.17;;;7.67;;
5811;SDS011;2932;52.400;9.558;2023-05-07T03:28:21;11.13;;;8.37;;
5811;SDS011;2932;52.400;9.558;2023-05-07T03:30:47;13.37;;;9.50;;
5811;SDS011;2932;52.400;9.558;2023-05-07T03:33:12;11.93;;;8.70;;
5811;SDS011;2932;52.400;9.558;2023-05-07T03:35:37;11.53;;;8.70;;
5811;SDS011;2932;52.400;9.558;2023-05-07T03:38:03;11.90;;;8.13;;
5811;SDS011;2932;52.400;9.558;2023-05-07T03:40:28;11.33;;;7.67;;
5811;SDS011;2932;52.400;9.558;2023-05-07T03:42:53;11.37;;;8.40;;
5811;SDS011;2932;52.400;9.558;2023-05-07T03:45:19;12.93;;;8.33;;
5811;SDS011;2932;52.400;9.558;2023-05-07T03:47:44;10.67;;;7.77;;
5811;SDS011;2932;52.400;9.558;2023-05-07T03:50:10;11.77;;;7.93;;
5811;SDS011;2932;52.400;9.558;2023-05-07T03:52:35;10.57;;;8.03;;
5811;SDS011;2932;52.400;9.558;2023-05-07T03:55:00;9.50;;;7.30;;
5811;SDS011;2932;52.400;9.558;2023-05-07T03:57:26;9.50;;;7.40;;
5811;SDS011;2932;52.400;9.558;2023-05-07T03:59:51;10.60;;;8.00;;
5811;SDS011;2932;52.400;9.558;2023-05-07T04:02:16;11.10;;;8.10;;
5811;SDS011;2932;52.400;9.558;2023-05-07T04:04:42;9.40;;;7.07;;
5811;SDS011;2932;52.400;9.558;2023-05-07T04:07:07;9.97;;;7.50;;
5811;SDS011;2932;52.400;9.558;2023-05-07T04:09:32;10.73;;;7.10;;
5811;SDS011;2932;52.400;9.558;2023-05-07T04:11:58;10.67;;;7.67;;
5811;SDS011;2932;52.400;9.558;2023-05-07T04:14:23;9.37;;;7.40;;
5811;SDS011;2932;52.400;9.558;2023-05-07T04:16:48;9.83;;;8.13;;
5811;SDS011;2932;52.400;9.558;2023-05-07T04:19:14;10.23;;;7.60;;
5811;SDS011;2932;52.400;9.558;2023-05-07T04:21:39;8.63;;;6.77;;
5811;SDS011;2932;52.400;9.558;2023-05-07T04:24:05;10.37;;;7.27;;
5811;SDS011;2932;52.400;9.558;2023-05-07T04:26:30;9.07;;;7.00;;
5811;SDS011;2932;52.400;9.558;2023-05-07T04:28:56;10.13;;;7.30;;
5811;SDS011;2932;52.400;9.558;2023-05-07T04:31:24;9.67;;;7.43;;
5811;SDS011;2932;52.400;9.558;2023-05-07T04:33:49;10.70;;;7.60;;
5811;SDS011;2932;52.400;9.558;2023-05-07T04:36:15;10.40;;;7.50;;
5811;SDS011;2932;52.400;9.558;2023-05-07T04:38:41;11.97;;;8.00;;
5811;SDS011;2932;52.400;9.558;2023-05-07T04:41:06;13.73;;;8.60;;
5811;SDS011;2932;52.400;9.558;2023-05-07T04:43:34;11.33;;;8.63;;
5811;SDS011;2932;52.400;9.558;2023-05-07T04:45:59;11.37;;;8.13;;
5811;SDS011;2932;52.400;9.558;2023-05-07T04:48:24;14.40;;;8.77;;
5811;SDS011;2932;52.400;9.558;2023-05-07T04:50:51;14.37;;;8.87;;
5811;SDS011;2932;52.400;9.558;2023-05-07T04:53:17;10.57;;;8.17;;
5811;SDS011;2932;52.400;9.558;2023-05-07T04:55:43;10.87;;;8.23;;
5811;SDS011;2932;52.400;9.558;2023-05-07T04:58:09;9.77;;;7.53;;
5811;SDS011;2932;52.400;9.558;2023-05-07T05:00:35;11.23;;;8.17;;
5811;SDS011;2932;52.400;9.558;2023-05-07T05:03:00;13.00;;;8.93;;
5811;SDS011;2932;52.400;9.558;2023-05-07T05:05:26;12.53;;;9.10;;
5811;SDS011;2932;52.400;9.558;2023-05-07T05:07:51;10.93;;;8.07;;
5811;SDS011;2932;52.400;9.558;2023-05-07T05:10:17;12.10;;;8.60;;
5811;SDS011;2932;52.400;9.558;2023-05-07T05:12:42;12.47;;;8.67;;
5811;SDS011;2932;52.400;9.558;2023-05-07T05:15:09;14.90;;;9.43;;
5811;SDS011;2932;52.400;9.558;2023-05-07T05:17:35;11.87;;;8.37;;
5811;SDS011;2932;52.400;9.558;2023-05-07T05:20:01;13.63;;;9.60;;
5811;SDS011;2932;52.400;9.558;2023-05-07T05:22:27;11.60;;;8.57;;
5811;SDS011;2932;52.400;9.558;2023-05-07T05:24:54;12.90;;;8.43;;
5811;SDS011;2932;52.400;9.558;2023-05-07T05:27:20;12.30;;;8.70;;
5811;SDS011;2932;52.400;9.558;2023-05-07T05:29:45;11.50;;;8.40;;
5811;SDS011;2932;52.400;9.558;2023-05-07T05:32:10;11.60;;;8.70;;
5811;SDS011;2932;52.400;9.558;2023-05-07T05:34:36;9.63;;;7.80;;
5811;SDS011;2932;52.400;9.558;2023-05-07T05:37:01;12.87;;;8.40;;
5811;SDS011;2932;52.400;9.558;2023-05-07T05:39:26;10.80;;;8.27;;
5811;SDS011;2932;52.400;9.558;2023-05-07T05:41:52;13.13;;;8.50;;
5811;SDS011;2932;52.400;9.558;2023-05-07T05:44:17;12.03;;;8.47;;
5811;SDS011;2932;52.400;9.558;2023-05-07T05:46:42;11.33;;;7.20;;
5811;SDS011;2932;52.400;9.558;2023-05-07T05:49:08;12.67;;;7.80;;
5811;SDS011;2932;52.400;9.558;2023-05-07T05:51:33;10.00;;;7.73;;
5811;SDS011;2932;52.400;9.558;2023-05-07T05:53:58;11.00;;;7.57;;
5811;SDS011;2932;52.400;9.558;2023-05-07T05:56:24;9.10;;;7.63;;
5811;SDS011;2932;52.400;9.558;2023-05-07T05:58:49;9.87;;;7.77;;
5811;SDS011;2932;52.400;9.558;2023-05-07T06:01:15;11.97;;;7.63;;
5811;SDS011;2932;52.400;9.558;2023-05-07T06:03:40;12.93;;;8.70;;
5811;SDS011;2932;52.400;9.558;2023-05-07T06:06:05;10.80;;;8.43;;
5811;SDS011;2932;52.400;9.558;2023-05-07T06:08:31;10.37;;;7.10;;
5811;SDS011;2932;52.400;9.558;2023-05-07T06:10:56;11.60;;;7.60;;
5811;SDS011;2932;52.400;9.558;2023-05-07T06:13:22;10.83;;;6.93;;
5811;SDS011;2932;52.400;9.558;2023-05-07T06:15:48;9.53;;;7.30;;
5811;SDS011;2932;52.400;9.558;2023-05-07T06:18:14;11.40;;;7.50;;
5811;SDS011;2932;52.400;9.558;2023-05-07T06:20:39;10.50;;;7.73;;
5811;SDS011;2932;52.400;9.558;2023-05-07T06:23:04;11.33;;;7.00;;
5811;SDS011;2932;52.400;9.558;2023-05-07T06:25:30;8.97;;;7.43;;
5811;SDS011;2932;52.400;9.558;2023-05-07T06:27:55;8.53;;;6.73;;
5811;SDS011;2932;52.400;9.558;2023-05-07T06:30:20;11.50;;;7.03;;
5811;SDS011;2932;52.400;9.558;2023-05-07T06:32:46;8.27;;;7.00;;
5811;SDS011;2932;52.400;9.558;2023-05-07T06:35:11;7.90;;;6.37;;
5811;SDS011;2932;52.400;9.558;2023-05-07T06:37:36;9.80;;;6.60;;
5811;SDS011;2932;52.400;9.558;2023-05-07T06:40:05;7.57;;;6.27;;
5811;SDS011;2932;52.400;9.558;2023-05-07T06:42:31;8.13;;;6.83;;
5811;SDS011;2932;52.400;9.558;2023-05-07T06:44:57;8.23;;;6.70;;
5811;SDS011;2932;52.400;9.558;2023-05-07T06:47:22;8.10;;;6.40;;
5811;SDS011;2932;52.400;9.558;2023-05-07T06:49:47;7.47;;;6.30;;
5811;SDS011;2932;52.400;9.558;2023-05-07T06:52:13;9.47;;;6.70;;
5811;SDS011;2932;52.400;9.558;2023-05-07T06:54:38;7.73;;;6.13;;
5811;SDS011;2932;52.400;9.558;2023-05-07T06:57:03;7.00;;;6.03;;
5811;SDS011;2932;52.400;9.558;2023-05-07T06:59:29;7.97;;;6.33;;
5811;SDS011;2932;52.400;9.558;2023-05-07T07:01:54;8.03;;;6.27;;
5811;SDS011;2932;52.400;9.558;2023-05-07T07:04:19;7.53;;;6.50;;
5811;SDS011;2932;52.400;9.558;2023-05-07T07:06:47;6.83;;;5.87;;
5811;SDS011;2932;52.400;9.558;2023-05-07T07:09:12;6.47;;;5.77;;
5811;SDS011;2932;52.400;9.558;2023-05-07T07:11:37;6.47;;;5.30;;
5811;SDS011;2932;52.400;9.558;2023-05-07T07:14:03;8.17;;;6.73;;
5811;SDS011;2932;52.400;9.558;2023-05-07T07:16:29;7.13;;;6.00;;
5811;SDS011;2932;52.400;9.558;2023-05-07T07:18:55;8.30;;;6.60;;
5811;SDS011;2932;52.400;9.558;2023-05-07T07:21:20;8.63;;;6.97;;
5811;SDS011;2932;52.400;9.558;2023-05-07T07:23:45;7.97;;;7.13;;
5811;SDS011;2932;52.400;9.558;2023-05-07T07:26:11;7.13;;;6.40;;
5811;SDS011;2932;52.400;9.558;2023-05-07T07:28:41;9.57;;;7.03;;
5811;SDS011;2932;52.400;9.558;2023-05-07T07:31:08;7.80;;;6.60;;
5811;SDS011;2932;52.400;9.558;2023-05-07T07:33:33;7.07;;;6.37;;
5811;SDS011;2932;52.400;9.558;2023-05-07T07:35:58;9.70;;;6.90;;
5811;SDS011;2932;52.400;9.558;2023-05-07T07:38:24;6.83;;;6.13;;
5811;SDS011;2932;52.400;9.558;2023-05-07T07:40:49;7.90;;;7.10;;
5811;SDS011;2932;52.400;9.558;2023-05-07T07:43:15;7.70;;;6.90;;
5811;SDS011;2932;52.400;9.558;2023-05-07T07:45:40;8.80;;;7.90;;
5811;SDS011;2932;52.400;9.558;2023-05-07T07:48:05;8.70;;;7.80;;
5811;SDS011;2932;52.400;9.558;2023-05-07T07:50:31;8.77;;;7.60;;
5811;SDS011;2932;52.400;9.558;2023-05-07T07:52:56;8.53;;;7.70;;
5811;SDS011;2932;52.400;9.558;2023-05-07T07:55:22;10.13;;;8.47;;
5811;SDS011;2932;52.400;9.558;2023-05-07T07:57:48;8.87;;;8.03;;
5811;SDS011;2932;52.400;9.558;2023-05-07T08:00:14;9.73;;;8.00;;
5811;SDS011;2932;52.400;9.558;2023-05-07T08:02:40;11.30;;;8.57;;
5811;SDS011;2932;52.400;9.558;2023-05-07T08:05:06;9.57;;;7.97;;
5811;SDS011;2932;52.400;9.558;2023-05-07T08:07:31;8.73;;;7.83;;
5811;SDS011;2932;52.400;9.558;2023-05-07T08:09:57;9.03;;;8.13;;
5811;SDS011;2932;52.400;9.558;2023-05-07T08:12:22;9.57;;;8.30;;
5811;SDS011;2932;52.400;9.558;2023-05-07T08:14:47;11.27;;;9.10;;
5811;SDS011;2932;52.400;9.558;2023-05-07T08:17:13;10.17;;;9.03;;
5811;SDS011;2932;52.400;9.558;2023-05-07T08:19:40;9.23;;;8.27;;
5811;SDS011;2932;52.400;9.558;2023-05-07T08:22:06;9.40;;;8.40;;
5811;SDS011;2932;52.400;9.558;2023-05-07T08:24:31;9.73;;;8.73;;
5811;SDS011;2932;52.400;9.558;2023-05-07T08:26:57;10.00;;;8.70;;
5811;SDS011;2932;52.400;9.558;2023-05-07T08:29:22;9.30;;;8.37;;
5811;SDS011;2932;52.400;9.558;2023-05-07T08:31:47;10.00;;;8.63;;
5811;SDS011;2932;52.400;9.558;2023-05-07T08:34:13;9.60;;;8.13;;
5811;SDS011;2932;52.400;9.558;2023-05-07T08:36:38;8.80;;;7.90;;
5811;SDS011;2932;52.400;9.558;2023-05-07T08:39:03;8.80;;;7.90;;
5811;SDS011;2932;52.400;9.558;2023-05-07T08:41:29;8.77;;;7.87;;
5811;SDS011;2932;52.400;9.558;2023-05-07T08:43:54;9.47;;;7.30;;
5811;SDS011;2932;52.400;9.558;2023-05-07T08:46:23;8.20;;;7.40;;
5811;SDS011;2932;52.400;9.558;2023-05-07T08:48:51;10.00;;;9.00;;
5811;SDS011;2932;52.400;9.558;2023-05-07T08:51:18;11.40;;;10.20;;
5811;SDS011;2932;52.400;9.558;2023-05-07T08:53:44;12.90;;;11.17;;
5811;SDS011;2932;52.400;9.558;2023-05-07T08:56:10;12.13;;;9.90;;
5811;SDS011;2932;52.400;9.558;2023-05-07T08:58:36;12.13;;;9.87;;
5811;SDS011;2932;52.400;9.558;2023-05-07T09:01:03;12.70;;;9.87;;
5811;SDS011;2932;52.400;9.558;2023-05-07T09:03:33;12.53;;;10.87;;
5811;SDS011;2932;52.400;9.558;2023-05-07T09:05:58;10.53;;;9.47;;
5811;SDS011;2932;52.400;9.558;2023-05-07T09:08:24;10.37;;;9.23;;
5811;SDS011;2932;52.400;9.558;2023-05-07T09:10:51;10.77;;;9.17;;
5811;SDS011;2932;52.400;9.558;2023-05-07T09:13:17;13.07;;;11.77;;
5811;SDS011;2932;52.400;9.558;2023-05-07T09:15:43;12.67;;;11.40;;
5811;SDS011;2932;52.400;9.558;2023-05-07T09:18:08;12.50;;;10.00;;
5811;SDS011;2932;52.400;9.558;2023-05-07T09:20:34;9.67;;;8.67;;
5811;SDS011;2932;52.400;9.558;2023-05-07T09:23:01;9.30;;;8.17;;
5811;SDS011;2932;52.400;9.558;2023-05-07T09:25:28;9.10;;;8.03;;
5811;SDS011;2932;52.400;9.558;2023-05-07T09:27:54;10.27;;;8.80;;
5811;SDS011;2932;52.400;9.558;2023-05-07T09:30:20;9.97;;;8.93;;
5811;SDS011;2932;52.400;9.558;2023-05-07T09:32:45;11.00;;;8.90;;
5811;SDS011;2932;52.400;9.558;2023-05-07T09:35:14;10.60;;;8.47;;
5811;SDS011;2932;52.400;9.558;2023-05-07T09:37:41;10.23;;;8.80;;
5811;SDS011;2932;52.400;9.558;2023-05-07T09:40:07;8.53;;;7.63;;
5811;SDS011;2932;52.400;9.558;2023-05-07T09:42:34;9.07;;;7.67;;
5811;SDS011;2932;52.400;9.558;2023-05-07T09:44:59;8.63;;;7.67;;
5811;SDS011;2932;52.400;9.558;2023-05-07T09:47:25;8.73;;;7.60;;
5811;SDS011;2932;52.400;9.558;2023-05-07T09:49:57;8.23;;;6.77;;
5811;SDS011;2932;52.400;9.558;2023-05-07T09:52:24;11.77;;;7.60;;
5811;SDS011;2932;52.400;9.558;2023-05-07T09:54:58;9.47;;;6.77;;
5811;SDS011;2932;52.400;9.558;2023-05-07T09:57:25;7.70;;;6.90;;
5811;SDS011;2932;52.400;9.558;2023-05-07T09:59:52;9.13;;;7.40;;
5811;SDS011;2932;52.400;9.558;2023-05-07T10:02:20;8.10;;;7.30;;
5811;SDS011;2932;52.400;9.558;2023-05-07T10:04:47;7.83;;;7.03;;
5811;SDS011;2932;52.400;9.558;2023-05-07T10:07:13;7.73;;;6.93;;
5811;SDS011;2932;52.400;9.558;2023-05-07T10:09:39;10.73;;;7.77;;
5811;SDS011;2932;52.400;9.558;2023-05-07T10:12:07;8.17;;;7.37;;
5811;SDS011;2932;52.400;9.558;2023-05-07T10:14:32;8.57;;;7.10;;
5811;SDS011;2932;52.400;9.558;2023-05-07T10:16:58;9.03;;;7.87;;
5811;SDS011;2932;52.400;9.558;2023-05-07T10:19:25;8.63;;;7.50;;
5811;SDS011;2932;52.400;9.558;2023-05-07T10:21:54;9.33;;;7.00;;
5811;SDS011;2932;52.400;9.558;2023-05-07T10:24:24;8.83;;;7.33;;
5811;SDS011;2932;52.400;9.558;2023-05-07T10:26:51;8.87;;;8.00;;
5811;SDS011;2932;52.400;9.558;2023-05-07T10:34:44;8.30;;;7.47;;
5811;SDS011;2932;52.400;9.558;2023-05-07T10:37:12;7.73;;;6.93;;
5811;SDS011;2932;52.400;9.558;2023-05-07T10:39:38;8.30;;;7.37;;
5811;SDS011;2932;52.400;9.558;2023-05-07T10:42:08;7.90;;;6.57;;
5811;SDS011;2932;52.400;9.558;2023-05-07T10:44:36;8.27;;;7.13;;
5811;SDS011;2932;52.400;9.558;2023-05-07T10:47:12;8.53;;;7.70;;
5811;SDS011;2932;52.400;9.558;2023-05-07T10:52:14;8.80;;;7.40;;
5811;SDS011;2932;52.400;9.558;2023-05-07T10:54:40;9.23;;;8.20;;
5811;SDS011;2932;52.400;9.558;2023-05-07T10:59:56;8.13;;;7.33;;
5811;SDS011;2932;52.400;9.558;2023-05-07T11:02:21;8.17;;;7.37;;
5811;SDS011;2932;52.400;9.558;2023-05-07T11:05:18;9.53;;;7.17;;
5811;SDS011;2932;52.400;9.558;2023-05-07T11:07:54;8.37;;;6.63;;
5811;SDS011;2932;52.400;9.558;2023-05-07T11:10:47;7.87;;;6.97;;
5811;SDS011;2932;52.400;9.558;2023-05-07T11:13:40;7.43;;;6.73;;
5811;SDS011;2932;52.400;9.558;2023-05-07T11:16:19;7.50;;;6.20;;
5811;SDS011;2932;52.400;9.558;2023-05-07T11:18:49;7.17;;;6.40;;
5811;SDS011;2932;52.400;9.558;2023-05-07T11:24:00;6.87;;;6.17;;
5811;SDS011;2932;52.400;9.558;2023-05-07T11:26:27;7.20;;;6.50;;
5811;SDS011;2932;52.400;9.558;2023-05-07T11:28:53;6.53;;;5.93;;
5811;SDS011;2932;52.400;9.558;2023-05-07T11:31:20;6.57;;;5.97;;
5811;SDS011;2932;52.400;9.558;2023-05-07T11:33:48;6.83;;;5.97;;
5811;SDS011;2932;52.400;9.558;2023-05-07T11:36:14;5.97;;;5.33;;
5811;SDS011;2932;52.400;9.558;2023-05-07T11:38:39;12.53;;;9.67;;
5811;SDS011;2932;52.400;9.558;2023-05-07T11:41:05;6.93;;;6.20;;
5811;SDS011;2932;52.400;9.558;2023-05-07T11:43:31;7.10;;;6.33;;
5811;SDS011;2932;52.400;9.558;2023-05-07T11:46:10;6.63;;;5.90;;
5811;SDS011;2932;52.400;9.558;2023-05-07T11:48:36;6.13;;;5.53;;
5811;SDS011;2932;52.400;9.558;2023-05-07T11:51:02;6.57;;;5.73;;
5811;SDS011;2932;52.400;9.558;2023-05-07T11:53:37;6.30;;;5.47;;
5811;SDS011;2932;52.400;9.558;2023-05-07T11:56:07;6.53;;;5.93;;
5811;SDS011;2932;52.400;9.558;2023-05-07T11:58:33;7.47;;;5.67;;
5811;SDS011;2932;52.400;9.558;2023-05-07T12:00:58;8.07;;;5.83;;
5811;SDS011;2932;52.400;9.558;2023-05-07T12:03:24;6.57;;;5.90;;
5811;SDS011;2932;52.400;9.558;2023-05-07T12:05:49;6.50;;;5.90;;
5811;SDS011;2932;52.400;9.558;2023-05-07T12:08:18;6.40;;;5.70;;
5811;SDS011;2932;52.400;9.558;2023-05-07T12:10:45;6.20;;;5.63;;
5811;SDS011;2932;52.400;9.558;2023-05-07T12:13:21;6.07;;;5.50;;
5811;SDS011;2932;52.400;9.558;2023-05-07T12:15:51;6.77;;;5.77;;
5811;SDS011;2932;52.400;9.558;2023-05-07T12:18:17;6.27;;;5.70;;
5811;SDS011;2932;52.400;9.558;2023-05-07T12:20:42;6.40;;;5.40;;
5811;SDS011;2932;52.400;9.558;2023-05-07T12:23:08;5.43;;;4.90;;
5811;SDS011;2932;52.400;9.558;2023-05-07T12:25:35;4.50;;;4.10;;
5811;SDS011;2932;52.400;9.558;2023-05-07T12:28:02;5.05;;;4.55;;
5811;SDS011;2932;52.400;9.558;2023-05-07T12:30:29;6.20;;;4.65;;
5811;SDS011;2932;52.400;9.558;2023-05-07T12:32:55;5.18;;;4.68;;
5811;SDS011;2932;52.400;9.558;2023-05-07T12:35:27;5.85;;;5.25;;
5811;SDS011;2932;52.400;9.558;2023-05-07T12:37:57;5.85;;;4.95;;
5811;SDS011;2932;52.400;9.558;2023-05-07T12:40:24;5.47;;;4.93;;
5811;SDS011;2932;52.400;9.558;2023-05-07T12:43:00;4.68;;;4.28;;
5811;SDS011;2932;52.400;9.558;2023-05-07T12:45:25;4.93;;;4.50;;
5811;SDS011;2932;52.400;9.558;2023-05-07T12:47:51;6.70;;;5.05;;
5811;SDS011;2932;52.400;9.558;2023-05-07T12:50:16;6.38;;;4.70;;
5811;SDS011;2932;52.400;9.558;2023-05-07T12:52:43;5.53;;;4.25;;
5811;SDS011;2932;52.400;9.558;2023-05-07T12:55:11;4.30;;;3.90;;
5811;SDS011;2932;52.400;9.558;2023-05-07T12:57:42;4.32;;;3.92;;
5811;SDS011;2932;52.400;9.558;2023-05-07T13:00:12;4.40;;;4.00;;
5811;SDS011;2932;52.400;9.558;2023-05-07T13:02:39;4.95;;;4.35;;
5811;SDS011;2932;52.400;9.558;2023-05-07T13:05:05;4.65;;;4.15;;
5811;SDS011;2932;52.400;9.558;2023-05-07T13:07:32;4.78;;;4.38;;
5811;SDS011;2932;52.400;9.558;2023-05-07T13:09:57;4.93;;;3.90;;
5811;SDS011;2932;52.400;9.558;2023-05-07T13:12:22;4.05;;;3.75;;
5811;SDS011;2932;52.400;9.558;2023-05-07T13:14:47;4.43;;;4.03;;
5811;SDS011;2932;52.400;9.558;2023-05-07T13:17:13;4.05;;;3.65;;
5811;SDS011;2932;52.400;9.558;2023-05-07T13:19:38;4.15;;;3.80;;
5811;SDS011;2932;52.400;9.558;2023-05-07T13:22:04;4.28;;;3.85;;
5811;SDS011;2932;52.400;9.558;2023-05-07T13:24:29;4.55;;;3.97;;
5811;SDS011;2932;52.400;9.558;2023-05-07T13:26:54;4.50;;;4.10;;
5811;SDS011;2932;52.400;9.558;2023-05-07T13:29:20;4.50;;;4.10;;
5811;SDS011;2932;52.400;9.558;2023-05-07T13:31:55;5.00;;;4.60;;
5811;SDS011;2932;52.400;9.558;2023-05-07T13:34:21;5.65;;;4.40;;
5811;SDS011;2932;52.400;9.558;2023-05-07T13:36:46;5.30;;;4.78;;
5811;SDS011;2932;52.400;9.558;2023-05-07T13:39:12;5.40;;;4.85;;
5811;SDS011;2932;52.400;9.558;2023-05-07T13:41:37;5.32;;;4.93;;
5811;SDS011;2932;52.400;9.558;2023-05-07T13:44:02;5.40;;;4.90;;
5811;SDS011;2932;52.400;9.558;2023-05-07T13:46:28;5.38;;;4.95;;
5811;SDS011;2932;52.400;9.558;2023-05-07T13:48:54;5.10;;;4.70;;
5811;SDS011;2932;52.400;9.558;2023-05-07T13:51:20;5.10;;;4.70;;
5811;SDS011;2932;52.400;9.558;2023-05-07T13:53:45;4.47;;;4.07;;
5811;SDS011;2932;52.400;9.558;2023-05-07T13:56:10;4.88;;;4.40;;
5811;SDS011;2932;52.400;9.558;2023-05-07T13:58:36;4.50;;;4.10;;
5811;SDS011;2932;52.400;9.558;2023-05-07T14:01:01;4.80;;;4.50;;
5811;SDS011;2932;52.400;9.558;2023-05-07T14:03:27;5.30;;;4.90;;
5811;SDS011;2932;52.400;9.558;2023-05-07T14:05:52;6.00;;;5.40;;
5811;SDS011;2932;52.400;9.558;2023-05-07T14:08:17;6.10;;;5.60;;
5811;SDS011;2932;52.400;9.558;2023-05-07T14:10:45;6.30;;;5.68;;
5811;SDS011;2932;52.400;9.558;2023-05-07T14:13:11;6.07;;;5.57;;
5811;SDS011;2932;52.400;9.558;2023-05-07T14:15:36;5.43;;;5.03;;
5811;SDS011;2932;52.400;9.558;2023-05-07T14:18:02;5.72;;;5.22;;
5811;SDS011;2932;52.400;9.558;2023-05-07T14:20:28;6.07;;;5.45;;
5811;SDS011;2932;52.400;9.558;2023-05-07T14:22:55;6.28;;;5.57;;
5811;SDS011;2932;52.400;9.558;2023-05-07T14:25:20;5.93;;;5.32;;
5811;SDS011;2932;52.400;9.558;2023-05-07T14:27:46;6.00;;;5.40;;
5811;SDS011;2932;52.400;9.558;2023-05-07T14:30:11;6.00;;;5.40;;
5811;SDS011;2932;52.400;9.558;2023-05-07T14:32:37;5.80;;;5.30;;
5811;SDS011;2932;52.400;9.558;2023-05-07T14:35:02;5.93;;;5.32;;
5811;SDS011;2932;52.400;9.558;2023-05-07T14:37:28;5.10;;;4.70;;
5811;SDS011;2932;52.400;9.558;2023-05-07T14:39:53;6.65;;;5.00;;
5811;SDS011;2932;52.400;9.558;2023-05-07T14:42:18;6.88;;;4.78;;
5811;SDS011;2932;52.400;9.558;2023-05-07T14:44:44;5.90;;;5.35;;
5811;SDS011;2932;52.400;9.558;2023-05-07T14:47:10;5.63;;;4.80;;
5811;SDS011;2932;52.400;9.558;2023-05-07T14:49:35;5.07;;;4.57;;
5811;SDS011;2932;52.400;9.558;2023-05-07T14:52:01;5.15;;;4.68;;
5811;SDS011;2932;52.400;9.558;2023-05-07T14:54:26;4.70;;;4.30;;
5811;SDS011;2932;52.400;9.558;2023-05-07T14:56:51;4.97;;;4.38;;
5811;SDS011;2932;52.400;9.558;2023-05-07T14:59:18;5.88;;;4.30;;
5811;SDS011;2932;52.400;9.558;2023-05-07T15:01:46;5.72;;;5.22;;
5811;SDS011;2932;52.400;9.558;2023-05-07T15:04:14;5.72;;;5.15;;
5811;SDS011;2932;52.400;9.558;2023-05-07T15:06:40;7.63;;;5.10;;
5811;SDS011;2932;52.400;9.558;2023-05-07T15:09:05;5.78;;;5.28;;
5811;SDS011;2932;52.400;9.558;2023-05-07T15:11:30;4.82;;;4.35;;
5811;SDS011;2932;52.400;9.558;2023-05-07T15:13:56;5.40;;;4.90;;
5811;SDS011;2932;52.400;9.558;2023-05-07T15:16:21;5.57;;;4.85;;